Kezdőlap
METAR-TAF:

METAR-TAF

Repülőterek :

Churchill, Manitoba, Kanada

földrajzi szélesség: 58-44N, földrajzi hosszúság: 094-04W, magasság: 28 m

Jelenlegi meteorológiai megfigyelések

A jelentés 1 órával és 5 perccel ezelõtt készült, 09:00 UTC
Nyugati szél 7 kt
Hőmérséklet -33°C
Páratartalom 74%
Légköri nyomás 1019 hPa
Látótávolság: 24.1 km
Derült ég

METAR: CYYQ 130900Z 28007KT 15SM SKC M33/M36 A3009 RMK SLP196

Idő: 04:05 (10:05 UTC)

Előrejelzés

A jelentés 4 órával és 25 perccel ezelõtt készült, 05:40 UTC
Az előrejelzés 13-én 06 óra UTC és 14-én 06 óra UTC között érvényes
Nyugati szél 10 kt
Látótávolság: 10 km
Kevés felhő 3000 lábon
13-én 06 óra UTC és 13-én 18 óra UTC között ideiglenes
Látótávolság: 8.0 km
Jégtű
13-én 1800 órától UTC szerint
Nyugat-északnyugati szél 12 kt
Látótávolság: 10 km
Derült ég

TAF: CYYQ 130540Z 1306/1406 28010KT P6SM FEW030 TEMPO 1306/1318 5SM IC FM131800 29012KT P6SM SKC RMK NXT FCST BY 131200Z

Meteorológiai megfigyelések és előrejelzések több, mint 4000 repülőtéren (METAR és TAF jelentéseket).

A térképen piros és sárga pontok jelzik az elérhető meteorológiai állomásokat.

Mozgassa az egeret a pont fölött, hogy megjelenjen az állomás neve.

Azután kattintson az időjárási megfigyelések és előrejelzések megtekintéséhez.

A térkép megváltoztatása: kattintson a fekete keresztel jelölt zöld gombra ráközelítéshez, a vonallal jelölt zöld gombra távolításhoz, vagy a zöld nyilakra a szomszédos térképek eléréséhez.


METAR-TAF: